PF1 CYKF-CYKF
Flight info
| Callsign | PF1 |
|---|---|
| Flight time | 0h 3m |
| Altitude | 3000 |
| Route | CYKF/26 VFR SOUTH |
| Aircraft | F16 |
Departure
| Time | 2026-05-04 00:13 |
|---|---|
| Airport | Region of Waterloo International Airport (CYKF) |
Arrival
| Time | 2026-05-04 00:17 |
|---|---|
| Airport | Region of Waterloo International Airport (CYKF) |
| Time | Latitude | Longitude | Altitude | Speed | Heading |
|---|---|---|---|---|---|
| 2026-05-04 00:13 | 43.39300 | -80.49232 | 3468 ft | 392 kts | 58° |
| 2026-05-04 00:13 | 43.40591 | -80.46241 | 2970 ft | 332 kts | 58° |
| 2026-05-04 00:13 | 43.41669 | -80.43736 | 2575 ft | 277 kts | 59° |
| 2026-05-04 00:14 | 43.42553 | -80.41668 | 2291 ft | 235 kts | 59° |
| 2026-05-04 00:14 | 43.43362 | -80.39803 | 1961 ft | 222 kts | 60° |
| 2026-05-04 00:14 | 43.44144 | -80.38035 | 1831 ft | 212 kts | 59° |
| 2026-05-04 00:14 | 43.44898 | -80.36261 | 1645 ft | 220 kts | 64° |
| 2026-05-04 00:15 | 43.45552 | -80.34387 | 1597 ft | 214 kts | 69° |
| 2026-05-04 00:15 | 43.46238 | -80.32463 | 1599 ft | 218 kts | 58° |
| 2026-05-04 00:15 | 43.47472 | -80.31595 | 1509 ft | 214 kts | 346° |
| 2026-05-04 00:15 | 43.48344 | -80.32869 | 1445 ft | 182 kts | 276° |
| 2026-05-04 00:16 | 43.48067 | -80.34307 | 1396 ft | 146 kts | 231° |
| 2026-05-04 00:16 | 43.47216 | -80.35358 | 1206 ft | 164 kts | 224° |
| 2026-05-04 00:16 | 43.46567 | -80.36741 | 1033 ft | 164 kts | 243° |
| 2026-05-04 00:16 | 43.46216 | -80.37723 | 1033 ft | 65 kts | 245° |
| 2026-05-04 00:17 | 43.46094 | -80.38105 | 1032 ft | 29 kts | 242° |
| 2026-05-04 00:17 | 43.46002 | -80.38353 | 1032 ft | 40 kts | 243° |
| 2026-05-04 00:17 | 43.45903 | -80.38534 | 1034 ft | 5 kts | 157° |
| 2026-05-04 00:17 | 43.45880 | -80.38505 | 1034 ft | 16 kts | 136° |
| 2026-05-04 00:18 | 43.45781 | -80.38531 | 1033 ft | 20 kts | 249° |
| 2026-05-04 00:18 | 43.45669 | -80.38599 | 1033 ft | 14 kts | 197° |
| 2026-05-04 00:18 | 43.45658 | -80.38604 | 1033 ft | 0 kts | 199° |